Time;durP1;ratioP1;P1;durP2;ratioP2;P2;SDS_P1;SDS_P2;PMS_P1;PMS_P2;Temp;Humidity;BMP_temperature;BMP_pressure;BME280_temperature;BME280_humidity;BME280_pressure;Samples;Min_cycle;Max_cycle;Signal;HPM_P1;HPM_P2
2023/12/09 00:00:45;;;;;;;17.35;5.03;;;8.20;99.90;;;;;;5094902;28;20028;-68
2023/12/09 00:03:11;;;;;;;15.90;4.90;;;8.20;99.90;;;;;;5095125;28;20058;-68
2023/12/09 00:05:37;;;;;;;16.95;5.05;;;8.20;99.90;;;;;;5095017;28;20033;-67
2023/12/09 00:08:02;;;;;;;15.50;5.22;;;8.20;99.90;;;;;;5095019;28;20044;-68
2023/12/09 00:10:28;;;;;;;14.80;3.92;;;8.20;99.90;;;;;;5094931;28;20491;-67
2023/12/09 00:12:54;;;;;;;19.40;5.18;;;8.30;99.90;;;;;;5094918;28;20013;-68
2023/12/09 00:15:20;;;;;;;17.40;4.95;;;8.30;99.90;;;;;;5094841;28;20012;-68
2023/12/09 00:17:45;;;;;;;16.77;5.03;;;8.30;99.90;;;;;;5094768;28;20080;-67
2023/12/09 00:20:12;;;;;;;18.55;5.07;;;8.30;99.90;;;;;;5094713;28;20039;-68
2023/12/09 00:22:38;;;;;;;16.85;4.75;;;8.30;99.90;;;;;;5093910;28;20029;-67
2023/12/09 00:25:05;;;;;;;19.23;4.45;;;8.30;99.90;;;;;;5094738;28;20040;-68
2023/12/09 00:27:31;;;;;;;15.15;6.00;;;8.30;99.90;;;;;;5094728;28;20029;-68
2023/12/09 00:29:57;;;;;;;16.58;4.40;;;8.30;99.90;;;;;;5094233;28;20063;-67
2023/12/09 00:32:22;;;;;;;16.13;4.68;;;8.30;99.90;;;;;;5094577;28;20025;-68
2023/12/09 00:34:48;;;;;;;17.20;4.60;;;8.30;99.90;;;;;;5094502;28;20021;-67
2023/12/09 00:37:13;;;;;;;15.13;4.60;;;8.20;99.90;;;;;;5094379;28;20052;-67
2023/12/09 00:39:39;;;;;;;17.05;4.75;;;8.20;99.90;;;;;;5094455;28;20033;-67
2023/12/09 00:42:05;;;;;;;20.42;4.38;;;8.20;99.90;;;;;;5093302;28;20372;-68
2023/12/09 00:44:30;;;;;;;16.63;4.57;;;8.20;99.90;;;;;;5094231;28;20059;-67
2023/12/09 00:46:56;;;;;;;17.10;4.32;;;8.20;99.90;;;;;;5094469;28;20043;-68
2023/12/09 00:49:21;;;;;;;15.32;5.15;;;8.20;99.90;;;;;;5094134;28;20028;-67
2023/12/09 00:51:47;;;;;;;19.65;4.80;;;8.20;99.90;;;;;;5094204;28;20036;-68
2023/12/09 00:54:13;;;;;;;12.77;4.15;;;8.20;99.90;;;;;;5094148;28;20032;-68
2023/12/09 00:56:38;;;;;;;16.67;4.35;;;8.20;99.90;;;;;;5094135;28;20024;-67
2023/12/09 00:59:05;;;;;;;17.48;4.40;;;8.10;99.90;;;;;;5093799;28;20467;-68
2023/12/09 01:01:30;;;;;;;16.00;4.35;;;8.10;99.90;;;;;;5093946;28;20044;-68
2023/12/09 01:03:56;;;;;;;12.45;4.50;;;8.10;99.90;;;;;;5093888;28;20021;-68
2023/12/09 01:06:21;;;;;;;16.02;4.97;;;8.20;99.90;;;;;;5093989;28;20025;-67
2023/12/09 01:08:47;;;;;;;18.30;4.63;;;8.20;99.90;;;;;;5093837;28;20024;-67
2023/12/09 01:11:13;;;;;;;15.50;4.60;;;8.20;99.90;;;;;;5093683;28;20078;-67
2023/12/09 01:13:38;;;;;;;19.80;5.70;;;8.20;99.90;;;;;;5092670;28;20060;-67
2023/12/09 01:16:04;;;;;;;18.25;4.70;;;8.20;99.90;;;;;;5093726;28;20092;-67
2023/12/09 01:18:30;;;;;;;16.17;4.40;;;8.20;99.90;;;;;;5093798;28;20076;-67
2023/12/09 01:20:55;;;;;;;11.88;3.85;;;8.20;99.90;;;;;;5093550;28;20031;-68
2023/12/09 01:23:21;;;;;;;12.60;4.05;;;8.20;99.90;;;;;;5093488;28;20035;-67
2023/12/09 01:25:47;;;;;;;16.95;5.38;;;8.10;99.90;;;;;;5093557;28;20028;-67
2023/12/09 01:28:12;;;;;;;17.70;4.68;;;8.10;99.90;;;;;;5093345;28;20052;-67
2023/12/09 01:30:38;;;;;;;13.40;4.00;;;8.10;99.90;;;;;;5093108;28;20071;-68
2023/12/09 01:33:03;;;;;;;16.15;5.07;;;8.00;99.90;;;;;;5091607;28;20032;-68
2023/12/09 01:35:29;;;;;;;23.30;5.55;;;8.00;99.90;;;;;;5092750;28;20062;-68
2023/12/09 01:37:54;;;;;;;18.02;4.20;;;8.00;99.90;;;;;;5093187;28;20035;-67
2023/12/09 01:40:21;;;;;;;11.80;4.75;;;8.00;99.90;;;;;;5093226;28;20025;-68
2023/12/09 01:42:46;;;;;;;15.70;4.63;;;7.90;99.90;;;;;;5093111;28;20035;-68
2023/12/09 01:45:12;;;;;;;20.52;4.57;;;7.90;99.90;;;;;;5093197;28;20032;-67
2023/12/09 01:47:39;;;;;;;15.18;4.28;;;7.90;99.90;;;;;;5093035;28;20031;-67
2023/12/09 01:50:07;;;;;;;15.80;3.92;;;7.90;99.90;;;;;;5093093;28;20060;-67
2023/12/09 01:52:33;;;;;;;21.52;4.93;;;7.90;99.90;;;;;;5093123;28;20027;-67
2023/12/09 01:55:00;;;;;;;16.98;4.47;;;7.80;99.90;;;;;;5092982;28;20021;-68
2023/12/09 01:57:27;;;;;;;17.83;4.60;;;7.80;99.90;;;;;;5092798;28;20031;-67
2023/12/09 01:59:53;;;;;;;14.68;4.18;;;7.80;99.90;;;;;;5092683;28;20115;-67
2023/12/09 02:02:19;;;;;;;21.95;4.43;;;7.80;99.90;;;;;;5092800;28;20055;-68
2023/12/09 02:04:45;;;;;;;16.25;4.60;;;7.80;99.90;;;;;;5092686;28;20035;-68
2023/12/09 02:07:10;;;;;;;20.65;4.93;;;7.80;99.90;;;;;;5092721;28;20084;-67
2023/12/09 02:09:39;;;;;;;21.42;4.80;;;7.80;99.90;;;;;;5092627;28;20036;-67
2023/12/09 02:12:26;;;;;;;12.35;4.10;;;7.80;99.90;;;;;;5092643;28;20025;-68
2023/12/09 02:15:06;;;;;;;16.45;4.78;;;7.80;99.90;;;;;;5092686;28;20076;-67
2023/12/09 02:17:38;;;;;;;17.33;4.35;;;7.80;99.90;;;;;;5092679;28;20020;-68
2023/12/09 02:20:05;;;;;;;15.52;4.50;;;7.70;99.90;;;;;;5092652;28;20033;-67
2023/12/09 02:22:31;;;;;;;21.35;4.53;;;7.80;99.90;;;;;;5092575;28;20463;-67
2023/12/09 02:24:56;;;;;;;10.48;4.30;;;7.70;99.90;;;;;;5092483;28;20253;-67
2023/12/09 02:27:33;;;;;;;19.52;4.22;;;7.70;99.90;;;;;;5092576;28;20084;-68
2023/12/09 02:30:24;;;;;;;17.75;5.05;;;7.70;99.90;;;;;;5092283;28;20028;-67
2023/12/09 02:32:53;;;;;;;18.05;4.55;;;7.70;99.90;;;;;;5092426;28;20043;-67
2023/12/09 02:35:21;;;;;;;17.63;4.93;;;7.70;99.90;;;;;;5092143;28;20062;-68
2023/12/09 02:37:47;;;;;;;21.25;4.45;;;7.70;99.90;;;;;;5092384;28;20033;-68
2023/12/09 02:40:15;;;;;;;20.60;5.18;;;7.60;99.90;;;;;;5092409;28;20020;-67
2023/12/09 02:42:41;;;;;;;14.48;4.55;;;7.70;99.90;;;;;;5092398;28;20025;-67
2023/12/09 02:45:07;;;;;;;13.32;5.10;;;7.70;99.90;;;;;;5091889;28;20078;-68
2023/12/09 02:47:33;;;;;;;19.33;5.00;;;7.60;99.90;;;;;;5092167;28;20029;-67
2023/12/09 02:49:59;;;;;;;12.05;3.80;;;7.60;99.90;;;;;;5092110;28;20036;-67
2023/12/09 02:52:24;;;;;;;16.02;5.03;;;7.60;99.90;;;;;;5092229;28;20069;-67
2023/12/09 02:54:50;;;;;;;17.58;4.63;;;7.60;99.90;;;;;;5092219;28;20029;-68
2023/12/09 02:57:16;;;;;;;15.90;5.00;;;7.60;99.90;;;;;;5092303;28;20024;-68
2023/12/09 02:59:41;;;;;;;17.20;4.35;;;7.60;99.90;;;;;;5091966;28;20021;-67
2023/12/09 03:02:07;;;;;;;14.02;4.20;;;7.60;99.90;;;;;;5092109;28;20025;-67
2023/12/09 03:04:33;;;;;;;19.15;4.35;;;7.60;99.90;;;;;;5091980;28;20036;-68
2023/12/09 03:06:58;;;;;;;14.82;4.07;;;7.50;99.90;;;;;;5092160;28;20032;-67
2023/12/09 03:09:24;;;;;;;23.17;5.20;;;7.60;99.90;;;;;;5092000;28;20045;-67
2023/12/09 03:11:49;;;;;;;12.85;3.90;;;7.60;99.90;;;;;;5091195;28;20028;-67
2023/12/09 03:14:15;;;;;;;9.10;4.68;;;7.50;99.90;;;;;;5092047;28;20449;-67
2023/12/09 03:16:41;;;;;;;16.50;4.35;;;7.50;99.90;;;;;;5092115;28;20032;-67
2023/12/09 03:19:06;;;;;;;16.20;4.30;;;7.60;99.90;;;;;;5091968;28;20032;-67
2023/12/09 03:21:32;;;;;;;23.02;5.00;;;7.60;99.90;;;;;;5091945;28;20025;-67
2023/12/09 03:23:57;;;;;;;16.55;4.22;;;7.60;99.90;;;;;;5092009;28;20020;-68
2023/12/09 03:26:24;;;;;;;15.32;3.90;;;7.60;99.90;;;;;;5091982;28;20021;-68
2023/12/09 03:28:51;;;;;;;13.57;4.10;;;7.60;99.90;;;;;;5091918;28;20036;-67
2023/12/09 03:31:17;;;;;;;16.52;4.00;;;7.60;99.90;;;;;;5091709;28;20051;-68
2023/12/09 03:33:43;;;;;;;16.98;4.25;;;7.60;99.90;;;;;;5091854;28;20092;-68
2023/12/09 03:36:13;;;;;;;19.70;4.22;;;7.70;99.90;;;;;;5091663;28;20049;-67
2023/12/09 03:38:39;;;;;;;15.82;3.83;;;7.70;99.90;;;;;;5091917;28;20017;-68
2023/12/09 03:41:05;;;;;;;16.90;3.90;;;7.70;99.90;;;;;;5091826;28;20056;-68
2023/12/09 03:43:31;;;;;;;13.30;4.22;;;7.70;99.90;;;;;;5091580;28;20060;-68
2023/12/09 03:45:58;;;;;;;14.55;3.88;;;7.70;99.90;;;;;;5091783;28;20055;-67
2023/12/09 03:48:24;;;;;;;17.05;4.13;;;7.70;99.90;;;;;;5091798;28;20091;-67
2023/12/09 03:50:50;;;;;;;16.67;3.75;;;7.70;99.90;;;;;;5091731;28;20084;-68
2023/12/09 03:53:15;;;;;;;15.63;3.95;;;7.70;99.90;;;;;;5091695;28;20036;-67
2023/12/09 03:55:41;;;;;;;11.98;3.53;;;7.70;99.90;;;;;;5091724;28;20020;-67
2023/12/09 03:58:08;;;;;;;18.95;5.20;;;7.70;99.90;;;;;;5094152;28;20035;-67
2023/12/09 04:00:34;;;;;;;19.58;4.63;;;7.80;99.90;;;;;;5094960;28;20025;-67
2023/12/09 04:03:00;;;;;;;10.20;3.40;;;7.80;99.90;;;;;;5095193;28;20029;-67
2023/12/09 04:05:26;;;;;;;23.70;4.90;;;7.80;99.90;;;;;;5095036;28;20115;-68
2023/12/09 04:07:51;;;;;;;16.60;4.30;;;7.90;99.90;;;;;;5095046;28;20088;-67
2023/12/09 04:10:17;;;;;;;19.58;4.40;;;7.90;99.90;;;;;;5094937;28;20087;-67
2023/12/09 04:12:43;;;;;;;17.50;4.18;;;7.80;99.90;;;;;;5094934;28;20044;-67
2023/12/09 04:15:13;;;;;;;19.98;4.43;;;7.80;99.90;;;;;;5094866;28;20062;-68
2023/12/09 04:17:39;;;;;;;17.77;4.38;;;7.80;99.90;;;;;;5094856;28;20037;-68
2023/12/09 04:20:07;;;;;;;10.77;3.70;;;7.80;99.90;;;;;;5094821;28;20028;-68
2023/12/09 04:22:33;;;;;;;13.77;4.63;;;7.70;99.90;;;;;;5094791;28;20029;-68
2023/12/09 04:24:59;;;;;;;15.63;4.43;;;7.80;99.90;;;;;;5094728;28;20017;-68
2023/12/09 04:27:24;;;;;;;16.95;4.00;;;7.70;99.90;;;;;;5094664;28;20031;-67
2023/12/09 04:29:51;;;;;;;20.13;4.50;;;7.70;99.90;;;;;;5094367;28;20033;-67
2023/12/09 04:32:16;;;;;;;12.23;4.05;;;7.70;99.90;;;;;;5094554;28;20108;-68
2023/12/09 04:34:42;;;;;;;23.92;4.45;;;7.60;99.90;;;;;;5094538;28;20013;-68
2023/12/09 04:37:08;;;;;;;16.05;3.75;;;7.60;99.90;;;;;;5094337;28;20051;-67
2023/12/09 04:39:33;;;;;;;14.15;3.97;;;7.60;99.90;;;;;;5094476;28;20056;-68
2023/12/09 04:41:59;;;;;;;16.67;4.28;;;7.60;99.90;;;;;;5094321;28;20060;-68
2023/12/09 04:44:25;;;;;;;13.98;4.18;;;7.60;99.90;;;;;;5094326;28;20056;-67
2023/12/09 04:46:51;;;;;;;13.32;3.90;;;7.60;99.90;;;;;;5094336;28;20024;-68
2023/12/09 04:49:17;;;;;;;14.68;3.58;;;7.60;99.90;;;;;;5094200;28;20093;-67
2023/12/09 04:51:42;;;;;;;10.82;3.78;;;7.60;99.90;;;;;;5093252;28;20029;-67
2023/12/09 04:54:08;;;;;;;16.13;4.22;;;7.50;99.90;;;;;;5094151;28;20025;-68
2023/12/09 04:56:33;;;;;;;16.35;4.22;;;7.60;99.90;;;;;;5094034;28;20028;-68
2023/12/09 04:59:00;;;;;;;13.32;3.83;;;7.50;99.90;;;;;;5093905;28;20056;-67
2023/12/09 05:01:26;;;;;;;12.82;4.07;;;7.50;99.90;;;;;;5093995;28;20028;-68
2023/12/09 05:03:52;;;;;;;14.10;3.55;;;7.50;99.90;;;;;;5094021;28;20028;-67
2023/12/09 05:06:17;;;;;;;11.55;3.40;;;7.50;99.90;;;;;;5093875;28;20033;-67
2023/12/09 05:08:43;;;;;;;16.52;4.30;;;7.50;99.90;;;;;;5093485;28;20037;-68
2023/12/09 05:11:09;;;;;;;15.85;3.60;;;7.50;99.90;;;;;;5093679;28;20044;-67
2023/12/09 05:13:35;;;;;;;15.55;3.72;;;7.50;99.90;;;;;;5093754;28;20024;-68
2023/12/09 05:16:00;;;;;;;15.45;3.80;;;7.50;99.90;;;;;;5093812;28;20099;-67
2023/12/09 05:18:26;;;;;;;9.95;2.92;;;7.50;99.90;;;;;;5093707;28;20029;-68
2023/12/09 05:20:52;;;;;;;17.27;3.90;;;7.50;99.90;;;;;;5093611;28;20028;-68
2023/12/09 05:23:17;;;;;;;13.60;3.28;;;7.50;99.90;;;;;;5093544;28;20017;-68
2023/12/09 05:25:44;;;;;;;16.42;3.70;;;7.50;99.90;;;;;;5093434;28;20544;-67
2023/12/09 05:28:10;;;;;;;14.77;3.92;;;7.50;99.90;;;;;;5093470;28;20036;-67
2023/12/09 05:30:36;;;;;;;10.68;3.28;;;7.50;99.90;;;;;;5093254;28;20021;-68
2023/12/09 05:33:01;;;;;;;9.63;3.38;;;7.50;99.90;;;;;;5093378;28;20020;-67
2023/12/09 05:35:27;;;;;;;13.35;4.10;;;7.50;99.90;;;;;;5093084;28;20029;-68
2023/12/09 05:37:53;;;;;;;8.52;3.10;;;7.50;99.90;;;;;;5093347;28;20054;-68
2023/12/09 05:40:19;;;;;;;14.10;3.45;;;7.50;99.90;;;;;;5093216;28;20024;-67
2023/12/09 05:42:44;;;;;;;20.60;3.42;;;7.50;99.90;;;;;;5093313;28;20040;-68
2023/12/09 05:45:10;;;;;;;12.15;3.83;;;7.50;99.90;;;;;;5093250;28;20024;-67
2023/12/09 05:47:36;;;;;;;6.90;2.63;;;7.40;99.90;;;;;;5093138;28;20028;-68
2023/12/09 05:50:01;;;;;;;12.05;3.15;;;7.50;99.90;;;;;;5093013;28;20029;-68
2023/12/09 05:52:27;;;;;;;22.50;5.00;;;7.50;99.90;;;;;;5093044;28;20113;-67
2023/12/09 05:54:52;;;;;;;9.30;2.55;;;7.50;99.90;;;;;;5092918;28;20025;-68
2023/12/09 05:57:18;;;;;;;14.88;3.20;;;7.50;99.90;;;;;;5093026;28;20032;-67
2023/12/09 05:59:44;;;;;;;12.10;3.13;;;7.50;99.90;;;;;;5092690;28;20032;-67
2023/12/09 06:02:10;;;;;;;16.02;3.42;;;7.50;99.90;;;;;;5092913;28;20036;-67
2023/12/09 06:04:35;;;;;;;12.18;2.70;;;7.50;99.90;;;;;;5092872;28;20033;-68
2023/12/09 06:07:01;;;;;;;13.30;2.58;;;7.40;99.90;;;;;;5092991;28;20052;-67
2023/12/09 06:09:27;;;;;;;17.00;3.47;;;7.50;99.90;;;;;;5092635;28;20020;-68
2023/12/09 06:11:53;;;;;;;8.02;2.55;;;7.40;99.90;;;;;;5092733;28;20086;-67
2023/12/09 06:14:18;;;;;;;12.00;2.85;;;7.40;99.90;;;;;;5092724;28;20050;-67
2023/12/09 06:16:44;;;;;;;13.75;3.65;;;7.50;99.90;;;;;;5092646;28;20543;-67
2023/12/09 06:19:09;;;;;;;14.98;3.00;;;7.50;99.90;;;;;;5092266;28;20033;-68
2023/12/09 06:21:35;;;;;;;9.73;2.85;;;7.50;99.90;;;;;;5092471;28;20028;-68
2023/12/09 06:24:01;;;;;;;11.13;3.22;;;7.50;99.90;;;;;;5092589;28;20024;-67
2023/12/09 06:26:26;;;;;;;10.50;2.60;;;7.50;99.90;;;;;;5092457;28;20025;-68
2023/12/09 06:28:52;;;;;;;10.27;3.05;;;7.50;99.90;;;;;;5092578;28;20097;-67
2023/12/09 06:31:18;;;;;;;15.50;3.00;;;7.50;99.90;;;;;;5092206;28;20086;-68
2023/12/09 06:33:43;;;;;;;14.88;3.33;;;7.50;99.90;;;;;;5091466;28;20027;-67
2023/12/09 06:36:09;;;;;;;8.45;2.83;;;7.50;99.90;;;;;;5092291;28;20051;-67
2023/12/09 06:38:39;;;;;;;10.98;2.58;;;7.50;99.90;;;;;;5092397;28;20029;-68
2023/12/09 06:41:05;;;;;;;9.30;2.50;;;7.50;99.90;;;;;;5092451;28;20024;-68
2023/12/09 06:43:31;;;;;;;13.35;3.50;;;7.50;99.90;;;;;;5092342;28;20462;-68
2023/12/09 06:45:59;;;;;;;10.05;2.55;;;7.50;99.90;;;;;;5092323;28;20044;-68
2023/12/09 06:48:25;;;;;;;12.32;3.03;;;7.50;99.90;;;;;;5092356;28;20037;-67
2023/12/09 06:50:50;;;;;;;9.95;2.58;;;7.50;99.90;;;;;;5092297;28;20036;-67
2023/12/09 06:53:16;;;;;;;16.20;3.38;;;7.50;99.90;;;;;;5092161;28;20498;-68
2023/12/09 06:55:42;;;;;;;12.25;2.80;;;7.50;99.90;;;;;;5092330;28;20082;-67
2023/12/09 06:58:07;;;;;;;8.02;2.40;;;7.50;99.90;;;;;;5092268;28;20059;-68
2023/12/09 07:00:33;;;;;;;8.75;2.65;;;7.50;99.90;;;;;;5090993;28;20036;-67
2023/12/09 07:02:58;;;;;;;6.95;2.40;;;7.50;99.90;;;;;;5092152;28;20047;-67
2023/12/09 07:05:24;;;;;;;12.63;3.55;;;7.50;99.90;;;;;;5092118;28;20044;-68
2023/12/09 07:07:50;;;;;;;8.07;2.83;;;7.50;99.90;;;;;;5092102;28;20060;-67
2023/12/09 07:10:16;;;;;;;12.68;3.38;;;7.50;99.90;;;;;;5092023;28;20028;-67
2023/12/09 07:12:43;;;;;;;16.27;3.03;;;7.50;99.90;;;;;;5092178;28;20029;-67
2023/12/09 07:15:09;;;;;;;8.05;2.72;;;7.50;99.90;;;;;;5092186;28;20025;-67
2023/12/09 07:17:35;;;;;;;14.68;2.90;;;7.50;99.90;;;;;;5092044;28;20028;-67
2023/12/09 07:20:00;;;;;;;10.25;2.63;;;7.50;99.90;;;;;;5092027;28;20059;-68
2023/12/09 07:22:26;;;;;;;10.65;2.38;;;7.60;99.90;;;;;;5091927;28;20048;-68
2023/12/09 07:24:52;;;;;;;16.10;2.80;;;7.60;99.90;;;;;;5091969;28;20116;-68
2023/12/09 07:27:18;;;;;;;9.40;2.60;;;7.60;99.90;;;;;;5091962;28;20021;-67
2023/12/09 07:29:44;;;;;;;9.38;2.95;;;7.60;99.90;;;;;;5091637;28;20060;-67
2023/12/09 07:32:09;;;;;;;8.52;2.63;;;7.70;99.90;;;;;;5094728;28;20024;-68
2023/12/09 07:34:35;;;;;;;13.82;2.83;;;7.70;99.90;;;;;;5095640;28;20043;-67
2023/12/09 07:37:01;;;;;;;5.68;2.42;;;7.70;99.90;;;;;;5095529;28;20051;-67
2023/12/09 07:39:27;;;;;;;11.65;2.70;;;7.80;99.90;;;;;;5095547;28;20021;-68
2023/12/09 07:41:52;;;;;;;16.05;3.13;;;7.80;99.90;;;;;;5095617;28;20028;-67
2023/12/09 07:44:19;;;;;;;9.00;2.40;;;7.80;99.90;;;;;;5095393;28;20025;-66
2023/12/09 07:46:45;;;;;;;13.35;3.58;;;7.80;99.90;;;;;;5095474;28;20020;-67
2023/12/09 07:49:11;;;;;;;12.15;2.80;;;7.80;99.90;;;;;;5095354;28;20016;-67
2023/12/09 07:51:37;;;;;;;7.93;2.33;;;7.90;99.90;;;;;;5095314;28;20036;-67
2023/12/09 07:54:02;;;;;;;12.38;2.47;;;7.90;99.90;;;;;;5095368;28;20035;-67
2023/12/09 07:56:28;;;;;;;9.80;2.20;;;7.90;99.90;;;;;;5095287;28;20021;-67
2023/12/09 07:58:54;;;;;;;10.93;2.53;;;7.90;99.90;;;;;;5095224;28;20029;-67
2023/12/09 08:01:19;;;;;;;16.80;3.15;;;8.00;99.90;;;;;;5094037;28;20033;-67
2023/12/09 08:03:45;;;;;;;9.70;2.42;;;8.00;99.90;;;;;;5095053;28;20074;-67
2023/12/09 08:06:11;;;;;;;9.65;2.75;;;8.00;99.90;;;;;;5094936;28;20082;-67
2023/12/09 08:08:38;;;;;;;12.95;2.53;;;8.00;99.90;;;;;;5095080;28;20044;-68
2023/12/09 08:11:04;;;;;;;11.52;2.70;;;8.00;99.90;;;;;;5094046;28;20029;-67
2023/12/09 08:13:29;;;;;;;8.80;2.40;;;8.00;99.90;;;;;;5094948;28;20027;-67
2023/12/09 08:15:55;;;;;;;8.65;2.08;;;8.00;99.90;;;;;;5094962;28;20028;-69
2023/12/09 08:18:20;;;;;;;8.20;2.03;;;8.10;99.90;;;;;;5094848;28;20114;-68
2023/12/09 08:20:46;;;;;;;6.55;2.78;;;8.10;99.90;;;;;;5093692;28;20149;-67
2023/12/09 08:23:12;;;;;;;10.55;2.60;;;8.10;99.90;;;;;;5094767;28;20029;-67
2023/12/09 08:25:38;;;;;;;8.52;2.05;;;8.10;99.90;;;;;;5094726;28;20051;-67
2023/12/09 08:28:05;;;;;;;16.00;2.60;;;8.20;99.90;;;;;;5094664;28;20046;-67
2023/12/09 08:30:31;;;;;;;10.02;2.38;;;8.20;99.90;;;;;;5094316;28;20016;-67
2023/12/09 08:32:57;;;;;;;9.70;2.13;;;8.20;99.90;;;;;;5094594;28;20016;-67
2023/12/09 08:35:23;;;;;;;9.23;2.42;;;8.20;99.90;;;;;;5094315;28;20054;-67
2023/12/09 08:37:48;;;;;;;9.88;2.22;;;8.30;99.90;;;;;;5094509;28;20036;-67
2023/12/09 08:40:14;;;;;;;10.85;2.20;;;8.30;99.90;;;;;;5093464;28;20025;-67
2023/12/09 08:42:41;;;;;;;12.05;2.55;;;8.30;99.90;;;;;;5093868;28;20436;-67
2023/12/09 08:45:09;;;;;;;7.80;2.17;;;8.30;99.90;;;;;;5094415;28;20021;-67
2023/12/09 08:47:35;;;;;;;5.22;2.10;;;8.40;99.90;;;;;;5094422;28;20028;-67
2023/12/09 08:50:02;;;;;;;11.95;2.55;;;8.40;99.90;;;;;;5094087;28;20020;-67
2023/12/09 08:52:28;;;;;;;8.85;2.10;;;8.40;99.90;;;;;;5094249;28;20024;-67
2023/12/09 08:54:54;;;;;;;9.63;2.20;;;8.40;99.90;;;;;;5094266;28;20036;-67
2023/12/09 08:57:19;;;;;;;11.15;2.40;;;8.40;99.90;;;;;;5094223;28;20021;-67
2023/12/09 08:59:45;;;;;;;7.68;1.80;;;8.50;99.90;;;;;;5093843;28;20086;-67
2023/12/09 09:02:10;;;;;;;16.08;2.80;;;8.50;99.90;;;;;;5094202;28;20033;-67
2023/12/09 09:04:36;;;;;;;6.35;2.00;;;8.50;99.90;;;;;;5093901;28;20033;-67
2023/12/09 09:07:02;;;;;;;12.38;2.05;;;8.50;99.90;;;;;;5094035;28;20028;-67
2023/12/09 09:09:27;;;;;;;13.85;2.17;;;8.50;99.90;;;;;;5093791;28;20044;-67
2023/12/09 09:11:53;;;;;;;7.10;2.45;;;8.50;99.90;;;;;;5093818;28;20050;-67
2023/12/09 09:14:18;;;;;;;7.55;2.53;;;8.50;99.90;;;;;;5093837;28;20025;-67
2023/12/09 09:16:44;;;;;;;8.07;2.50;;;8.60;99.90;;;;;;5093761;28;20056;-67
2023/12/09 09:19:09;;;;;;;8.70;2.60;;;8.60;99.90;;;;;;5093707;28;20029;-67
2023/12/09 09:21:35;;;;;;;11.88;2.58;;;8.60;99.90;;;;;;5093596;28;20025;-67
2023/12/09 09:24:01;;;;;;;4.88;2.20;;;8.70;99.90;;;;;;5093651;28;20082;-67
2023/12/09 09:26:26;;;;;;;5.45;2.25;;;8.70;99.90;;;;;;5093586;28;20036;-67
2023/12/09 09:28:52;;;;;;;6.90;2.22;;;8.70;99.90;;;;;;5093506;28;20033;-67
2023/12/09 09:31:17;;;;;;;11.45;2.60;;;8.80;99.90;;;;;;5093237;28;20041;-67
2023/12/09 09:33:43;;;;;;;6.55;1.90;;;8.80;99.90;;;;;;5093303;28;20032;-67
2023/12/09 09:36:09;;;;;;;7.25;2.00;;;8.80;99.90;;;;;;5093143;28;20037;-67
2023/12/09 09:38:34;;;;;;;11.80;2.30;;;8.80;99.90;;;;;;5093232;28;20032;-67
2023/12/09 09:41:06;;;;;;;9.45;2.40;;;8.80;99.90;;;;;;5093231;28;20056;-67
2023/12/09 09:43:43;;;;;;;8.90;2.00;;;8.90;99.90;;;;;;5093279;28;20021;-67
2023/12/09 09:46:09;;;;;;;7.90;1.83;;;8.90;99.90;;;;;;5093291;28;20032;-68
2023/12/09 09:48:37;;;;;;;6.07;2.30;;;8.90;99.90;;;;;;5093100;28;20035;-67
2023/12/09 09:51:07;;;;;;;7.20;1.70;;;8.90;99.90;;;;;;5093047;28;20107;-67
2023/12/09 09:53:36;;;;;;;7.38;2.25;;;8.90;99.90;;;;;;5092936;28;20076;-67
2023/12/09 09:56:05;;;;;;;8.25;2.05;;;8.90;99.90;;;;;;5092172;28;20028;-67
2023/12/09 09:58:32;;;;;;;8.82;1.80;;;8.90;99.90;;;;;;5091903;28;20032;-67
2023/12/09 10:00:59;;;;;;;8.13;2.00;;;9.00;99.90;;;;;;5108411;28;20028;-67
2023/12/09 10:03:24;;;;;;;8.60;1.95;;;9.00;99.90;;;;;;5113094;28;20052;-67
2023/12/09 10:05:53;;;;;;;10.73;2.10;;;9.00;99.90;;;;;;5112887;28;20035;-67
2023/12/09 10:08:18;;;;;;;5.43;1.85;;;9.00;99.90;;;;;;5112658;28;20051;-67
2023/12/09 10:10:44;;;;;;;7.72;1.75;;;9.00;99.90;;;;;;5112426;28;20039;-67
2023/12/09 10:13:10;;;;;;;10.88;1.73;;;9.00;99.90;;;;;;5112709;28;20024;-67
2023/12/09 10:15:35;;;;;;;8.35;1.70;;;9.00;99.90;;;;;;5112533;28;20021;-67
2023/12/09 10:18:04;;;;;;;6.13;2.05;;;9.00;99.90;;;;;;5111854;28;20251;-67
2023/12/09 10:20:33;;;;;;;8.55;2.03;;;9.10;99.90;;;;;;5110460;28;20027;-68
2023/12/09 10:23:00;;;;;;;6.22;1.88;;;9.00;99.90;;;;;;5092162;28;20021;-67
2023/12/09 10:25:25;;;;;;;6.90;1.60;;;9.10;99.90;;;;;;5091003;28;20082;-68
2023/12/09 10:27:51;;;;;;;5.88;1.83;;;9.10;99.90;;;;;;5097891;28;20023;-68
2023/12/09 10:30:18;;;;;;;9.80;2.45;;;9.10;99.90;;;;;;5110401;28;20028;-68
2023/12/09 10:32:46;;;;;;;7.47;1.70;;;9.10;99.90;;;;;;5103297;28;20047;-68
2023/12/09 10:35:12;;;;;;;8.07;2.00;;;9.10;99.90;;;;;;5091125;28;20040;-67
2023/12/09 10:37:38;;;;;;;4.68;1.52;;;9.10;99.90;;;;;;5090936;28;20045;-68
2023/12/09 10:40:08;;;;;;;13.25;2.22;;;9.10;99.90;;;;;;5092144;28;20038;-68
2023/12/09 10:42:37;;;;;;;6.13;1.67;;;9.20;99.90;;;;;;5092007;28;20091;-68
2023/12/09 10:45:04;;;;;;;6.43;1.77;;;9.20;99.90;;;;;;5092405;28;20023;-67
2023/12/09 10:47:30;;;;;;;6.47;1.98;;;9.20;99.90;;;;;;5092312;28;20043;-67
2023/12/09 10:49:57;;;;;;;5.82;1.80;;;9.20;99.90;;;;;;5092352;28;20040;-68
2023/12/09 10:52:22;;;;;;;5.80;1.55;;;9.30;99.90;;;;;;5092330;28;20072;-68
2023/12/09 10:54:48;;;;;;;5.85;1.55;;;9.30;99.90;;;;;;5092159;28;20399;-68
2023/12/09 10:57:15;;;;;;;5.97;1.77;;;9.30;99.90;;;;;;5092106;28;20033;-68
2023/12/09 10:59:42;;;;;;;8.20;1.50;;;9.30;99.90;;;;;;5092013;28;20029;-69
2023/12/09 11:02:08;;;;;;;7.53;1.83;;;9.40;99.90;;;;;;5092175;28;20025;-68
2023/12/09 11:04:35;;;;;;;4.93;1.23;;;9.40;99.90;;;;;;5092157;28;20032;-69
2023/12/09 11:07:03;;;;;;;6.03;1.40;;;9.40;99.90;;;;;;5094749;28;20036;-69
2023/12/09 11:09:31;;;;;;;7.43;1.35;;;9.40;99.90;;;;;;5116434;28;20432;-67
2023/12/09 11:11:58;;;;;;;7.00;1.50;;;9.50;99.90;;;;;;5116612;28;20024;-67
2023/12/09 11:14:27;;;;;;;8.07;1.45;;;9.50;99.90;;;;;;5116620;28;20046;-67
2023/12/09 11:16:53;;;;;;;7.15;2.13;;;9.60;99.90;;;;;;5116504;28;20028;-67
2023/12/09 11:19:19;;;;;;;4.20;1.48;;;9.60;99.90;;;;;;5116450;28;20020;-67
2023/12/09 11:21:46;;;;;;;8.38;1.65;;;9.60;99.90;;;;;;5116354;28;20080;-67
2023/12/09 11:24:13;;;;;;;6.57;1.63;;;9.60;99.90;;;;;;5116275;28;20040;-67
2023/12/09 11:26:41;;;;;;;5.95;1.60;;;9.70;99.90;;;;;;5116330;28;20016;-67
2023/12/09 11:29:12;;;;;;;10.90;1.30;;;9.70;99.90;;;;;;5115964;28;20021;-68
2023/12/09 11:31:38;;;;;;;6.90;1.38;;;9.60;99.90;;;;;;5116094;28;20024;-68
2023/12/09 11:34:11;;;;;;;5.55;1.40;;;9.70;99.90;;;;;;5116208;28;20043;-68
2023/12/09 11:36:38;;;;;;;6.88;1.50;;;9.70;99.90;;;;;;5115850;28;20048;-69
2023/12/09 11:39:10;;;;;;;4.47;1.40;;;9.70;99.90;;;;;;5116064;28;20024;-68
2023/12/09 11:41:40;;;;;;;8.82;2.30;;;9.60;99.90;;;;;;5116084;28;20080;-68
2023/12/09 11:44:07;;;;;;;4.63;1.40;;;9.60;99.90;;;;;;5115880;28;20020;-69
2023/12/09 11:46:34;;;;;;;5.68;1.52;;;9.60;99.90;;;;;;5114962;28;20094;-68
2023/12/09 11:49:01;;;;;;;6.13;1.60;;;9.60;99.90;;;;;;5115717;28;20031;-68
2023/12/09 11:51:28;;;;;;;10.25;1.80;;;9.50;99.90;;;;;;5115578;28;20079;-68
2023/12/09 11:54:04;;;;;;;6.38;1.58;;;9.50;99.90;;;;;;5115646;28;20021;-68
2023/12/09 11:56:31;;;;;;;6.90;1.70;;;9.50;99.90;;;;;;5114084;28;20024;-68
2023/12/09 11:58:57;;;;;;;6.45;1.33;;;9.50;99.90;;;;;;5115136;28;20024;-67
2023/12/09 12:01:24;;;;;;;6.15;1.92;;;9.50;99.90;;;;;;5115611;28;20028;-68
2023/12/09 12:03:50;;;;;;;3.22;1.58;;;9.50;99.90;;;;;;5115493;28;20028;-68
2023/12/09 12:06:18;;;;;;;3.45;1.33;;;9.50;99.90;;;;;;5115553;28;20050;-68
2023/12/09 12:08:47;;;;;;;4.25;1.48;;;9.60;99.90;;;;;;5114374;28;20062;-68
2023/12/09 12:11:14;;;;;;;5.55;1.27;;;9.60;99.90;;;;;;5115397;28;20087;-68
2023/12/09 12:13:40;;;;;;;7.30;1.67;;;9.60;99.90;;;;;;5115518;28;20462;-69
2023/12/09 12:16:06;;;;;;;3.83;1.15;;;9.60;99.90;;;;;;5115444;28;20110;-69
2023/12/09 12:18:33;;;;;;;6.10;1.67;;;9.70;99.90;;;;;;5114230;28;20024;-69
2023/12/09 12:20:59;;;;;;;6.80;1.40;;;9.70;99.90;;;;;;5115238;28;20046;-69
2023/12/09 12:23:25;;;;;;;4.40;1.00;;;9.70;99.90;;;;;;5115149;28;20039;-69
2023/12/09 12:25:54;;;;;;;3.60;0.95;;;9.80;99.90;;;;;;5115200;28;20031;-69
2023/12/09 12:28:24;;;;;;;7.30;1.70;;;9.80;99.90;;;;;;5115174;28;20024;-69
2023/12/09 12:30:59;;;;;;;4.93;1.20;;;9.80;99.90;;;;;;5114719;28;20027;-69
2023/12/09 12:33:26;;;;;;;2.75;0.95;;;9.80;99.90;;;;;;5115049;28;20031;-69
2023/12/09 12:35:55;;;;;;;2.17;0.75;;;9.80;99.90;;;;;;5114741;28;20054;-68
2023/12/09 12:38:24;;;;;;;4.57;1.45;;;9.80;99.90;;;;;;5114889;28;20047;-69
2023/12/09 12:40:51;;;;;;;4.10;1.13;;;9.80;99.90;;;;;;5114872;28;20044;-69
2023/12/09 12:43:17;;;;;;;1.80;0.73;;;9.70;99.90;;;;;;5114717;28;20103;-69
2023/12/09 12:45:50;;;;;;;2.75;1.08;;;9.70;99.90;;;;;;5114823;28;20054;-69